Flugplatz Mainz-Finthen

Für EDFZ sind keine METAR/TAF Berichte vorhanden.
Es werden die Flugwettermeldungen vom Flugplatz Wiesbaden Army Airfield in 15 km Entfernung angezeigt.

Bericht für ETOU

vom 25.01. um 22:56 UTC

kein Wind

Sichtweite 1400 m

feuchter Dunst

keine Wolken

Temperatur 0.1°C

Taupunkt 0.1°C

Luftfeuchtigkeit 100%

Luftdruck 1021 hPa

ETOU 252256Z AUTO 00000KT 1400 R25/1300VP1500 BR CLR 00/00 A3016 RMK AO2 SLP224 T00010001 400121004

Prognose für ETOU

vom 24.01. um 00:00 UTC

Am 24.01. zwischen 00:00 UTC und 00:00 UTC

variable Windrichtung mit 6 kt

Sichtweite 6000 m

feuchter Dunst

bedeckt in 400 ft


Am 24.01. zwischen 00:00 und 00:00 UTC übergehend zu

variable Windrichtung mit 6 kt

Sichtweite 800 m

Nebel

aufgebrochene Bewölkung in 500 ft


Am 25.01. zwischen 00:00 und 00:00 UTC übergehend zu

variable Windrichtung mit 6 kt

Sichtweite 8000 m

feuchter Dunst

aufgebrochene Bewölkung in 500 ft

TAF ETOU 242000Z 2420/2602 VRB06KT 6000 BR OVC004 620042 QNH3020INS BECMG 2423/2424 VRB06KT 0800 FG BKN005 620052 QNH3020INS BECMG 2510/2511 VRB06KT 8000 BR BKN005 620052 QNH3019INS TX04/2515Z TNM02/2500Z
Impressum